createdAt,value
2023-06-04T00:02:20.517Z,16.68
2023-06-04T00:04:47.680Z,16.73
2023-06-04T00:07:14.814Z,16.69
2023-06-04T00:09:41.874Z,16.87
2023-06-04T00:12:09.104Z,16.82
2023-06-04T00:14:36.039Z,16.88
2023-06-04T00:17:03.163Z,16.80
2023-06-04T00:19:30.090Z,16.69
2023-06-04T00:21:57.110Z,16.66
2023-06-04T00:24:24.148Z,16.62
2023-06-04T00:26:51.059Z,16.63
2023-06-04T00:29:18.214Z,16.62
2023-06-04T00:31:45.619Z,16.64
2023-06-04T00:34:12.631Z,16.74
2023-06-04T00:36:41.658Z,16.59
2023-06-04T00:39:08.648Z,16.58
2023-06-04T00:41:35.747Z,16.53
2023-06-04T00:44:03.458Z,16.46
2023-06-04T00:46:32.369Z,16.45
2023-06-04T00:48:59.670Z,16.51
2023-06-04T00:51:27.229Z,16.41
2023-06-04T00:53:54.964Z,16.50
2023-06-04T00:56:22.092Z,16.53
2023-06-04T00:58:49.114Z,16.57
2023-06-04T01:01:33.070Z,16.54
2023-06-04T01:04:02.225Z,16.45
2023-06-04T01:06:39.174Z,16.40
2023-06-04T01:09:07.122Z,16.34
2023-06-04T01:11:36.574Z,16.42
2023-06-04T01:14:05.278Z,16.43
2023-06-04T01:16:41.964Z,16.40
2023-06-04T01:20:00.595Z,16.34
2023-06-04T01:22:37.813Z,16.29
2023-06-04T01:25:27.013Z,16.31
2023-06-04T01:27:58.193Z,16.30
2023-06-04T01:30:28.082Z,16.22
2023-06-04T01:32:56.256Z,16.18
2023-06-04T01:35:25.980Z,16.31
2023-06-04T01:37:56.279Z,16.31
2023-06-04T01:40:24.118Z,15.87
2023-06-04T01:42:51.044Z,16.38
2023-06-04T01:45:18.763Z,16.41
2023-06-04T01:47:45.754Z,16.08
2023-06-04T01:50:12.794Z,16.24
2023-06-04T01:52:41.249Z,16.23
2023-06-04T01:55:13.212Z,16.18
2023-06-04T01:57:41.712Z,16.27
2023-06-04T02:00:11.627Z,16.19
2023-06-04T02:02:44.603Z,16.25
2023-06-04T02:05:12.224Z,16.14
2023-06-04T02:07:41.490Z,16.11
2023-06-04T02:10:09.306Z,16.11
2023-06-04T02:12:39.041Z,16.04
2023-06-04T02:15:10.927Z,15.97
2023-06-04T02:17:41.360Z,16.05
2023-06-04T02:20:10.750Z,16.17
2023-06-04T02:22:38.484Z,16.06
2023-06-04T02:25:06.756Z,16.07
2023-06-04T02:27:33.847Z,16.27
2023-06-04T02:30:01.020Z,16.13
2023-06-04T02:32:29.784Z,16.14
2023-06-04T02:34:57.273Z,16.17
2023-06-04T02:37:24.267Z,16.15
2023-06-04T02:39:51.639Z,16.17
2023-06-04T02:42:18.805Z,16.33
2023-06-04T02:44:45.693Z,16.30
2023-06-04T02:47:12.629Z,16.27
2023-06-04T02:49:39.739Z,16.33
2023-06-04T02:52:08.398Z,16.29
2023-06-04T02:54:35.693Z,16.32
2023-06-04T02:57:05.269Z,16.51
2023-06-04T02:59:33.677Z,16.41
2023-06-04T03:02:00.934Z,16.38
2023-06-04T03:04:35.499Z,16.35
2023-06-04T03:07:03.592Z,16.27
2023-06-04T03:09:31.909Z,16.29
2023-06-04T03:12:02.821Z,16.36
2023-06-04T03:14:34.476Z,16.44
2023-06-04T03:17:08.600Z,16.38
2023-06-04T03:19:39.466Z,16.28
2023-06-04T03:22:07.497Z,16.32
2023-06-04T03:24:40.024Z,16.30
2023-06-04T03:27:08.987Z,16.22
2023-06-04T03:29:36.711Z,16.16
2023-06-04T03:32:05.580Z,16.19
2023-06-04T03:34:35.557Z,16.24
2023-06-04T03:37:04.002Z,16.26
2023-06-04T03:39:31.653Z,16.22
2023-06-04T03:42:00.507Z,16.21
2023-06-04T03:44:28.448Z,16.30
2023-06-04T03:46:55.540Z,16.28
2023-06-04T03:49:24.116Z,16.38
2023-06-04T03:51:51.355Z,16.30
2023-06-04T03:54:19.762Z,16.33
2023-06-04T03:56:49.310Z,16.31
2023-06-04T03:59:16.360Z,16.33
2023-06-04T04:01:44.665Z,16.31
2023-06-04T04:04:11.956Z,16.30
2023-06-04T04:06:39.458Z,16.31
2023-06-04T04:09:07.973Z,16.28
2023-06-04T04:11:36.302Z,16.30
2023-06-04T04:14:04.093Z,16.34
2023-06-04T04:16:31.209Z,16.07
2023-06-04T04:18:58.655Z,16.31
2023-06-04T04:21:26.543Z,16.37
2023-06-04T04:23:53.719Z,16.47
2023-06-04T04:26:21.084Z,16.41
2023-06-04T04:28:53.424Z,16.49
2023-06-04T04:31:23.514Z,16.49
2023-06-04T04:33:52.432Z,16.47
2023-06-04T04:36:22.905Z,16.50
2023-06-04T04:38:56.017Z,16.50
2023-06-04T04:41:29.188Z,16.53
2023-06-04T04:44:05.100Z,16.68
2023-06-04T04:46:32.592Z,16.68
2023-06-04T04:48:59.582Z,16.61
2023-06-04T04:51:26.584Z,16.80
2023-06-04T04:53:55.866Z,16.96
2023-06-04T04:56:24.609Z,17.09
2023-06-04T04:58:52.892Z,17.12
2023-06-04T05:01:21.103Z,17.17
2023-06-04T05:03:50.278Z,17.21
2023-06-04T05:06:18.045Z,17.41
2023-06-04T05:08:45.686Z,17.41
2023-06-04T05:11:14.628Z,17.40
2023-06-04T05:13:45.744Z,17.59
2023-06-04T05:16:14.425Z,17.40
2023-06-04T05:18:45.747Z,17.59
2023-06-04T05:21:17.600Z,17.68
2023-06-04T05:23:53.965Z,17.44
2023-06-04T05:26:26.636Z,17.73
2023-06-04T05:28:58.143Z,17.85
2023-06-04T05:31:30.745Z,17.72
2023-06-04T05:34:02.493Z,17.96
2023-06-04T05:36:32.159Z,18.09
2023-06-04T05:39:03.212Z,17.87
2023-06-04T05:41:44.830Z,18.11
2023-06-04T05:44:12.036Z,18.12
2023-06-04T05:46:39.517Z,18.27
2023-06-04T05:49:06.611Z,18.30
2023-06-04T05:51:33.773Z,18.38
2023-06-04T05:54:01.197Z,18.41
2023-06-04T05:56:28.391Z,18.56
2023-06-04T05:58:57.195Z,18.39
2023-06-04T06:01:26.078Z,18.14
2023-06-04T06:03:53.896Z,18.26
2023-06-04T06:06:22.860Z,18.10
2023-06-04T06:08:50.786Z,18.27
2023-06-04T06:11:18.987Z,18.08
2023-06-04T06:13:46.506Z,18.15
2023-06-04T06:16:14.497Z,18.25
2023-06-04T06:18:41.718Z,18.21
2023-06-04T06:21:08.983Z,18.43
2023-06-04T06:23:36.808Z,18.49
2023-06-04T06:26:09.165Z,18.68
2023-06-04T06:28:41.827Z,18.57
2023-06-04T06:31:10.127Z,18.65
2023-06-04T06:33:42.697Z,18.77
2023-06-04T06:36:13.210Z,18.78
2023-06-04T06:38:41.286Z,18.51
2023-06-04T06:41:09.528Z,18.83
2023-06-04T06:43:36.865Z,19.18
2023-06-04T06:46:03.999Z,19.13
2023-06-04T06:48:31.022Z,19.31
2023-06-04T06:50:58.127Z,19.52
2023-06-04T06:53:25.159Z,19.53
2023-06-04T06:55:52.225Z,19.41
2023-06-04T06:58:19.204Z,19.50
2023-06-04T07:00:46.363Z,19.52
2023-06-04T07:03:13.723Z,19.21
2023-06-04T07:05:40.887Z,19.58
2023-06-04T07:08:07.978Z,19.91
2023-06-04T07:10:35.061Z,19.88
2023-06-04T07:13:02.234Z,19.94
2023-06-04T07:15:29.277Z,19.82
2023-06-04T07:17:56.337Z,19.70
2023-06-04T07:20:23.432Z,19.94
2023-06-04T07:22:50.659Z,20.34
2023-06-04T07:25:17.864Z,20.46
2023-06-04T07:27:44.888Z,20.49
2023-06-04T07:30:12.145Z,20.45
2023-06-04T07:32:39.169Z,20.29
2023-06-04T07:35:06.569Z,20.35
2023-06-04T07:37:33.685Z,20.51
2023-06-04T07:40:00.880Z,20.95
2023-06-04T07:42:28.028Z,20.89
2023-06-04T07:44:55.044Z,20.84
2023-06-04T07:47:22.902Z,20.96
2023-06-04T07:50:01.814Z,21.36
2023-06-04T07:52:32.556Z,21.46
2023-06-04T07:55:00.719Z,21.26
2023-06-04T07:57:28.441Z,21.44
2023-06-04T07:59:55.402Z,21.32
2023-06-04T08:02:22.686Z,21.30
2023-06-04T08:04:50.237Z,21.17
2023-06-04T08:07:17.297Z,20.96
2023-06-04T08:09:46.223Z,21.32
2023-06-04T08:12:13.360Z,21.30
2023-06-04T08:14:40.267Z,21.04
2023-06-04T08:17:07.344Z,21.34
2023-06-04T08:19:42.135Z,21.21
2023-06-04T08:22:13.501Z,21.22
2023-06-04T08:24:50.452Z,21.22
2023-06-04T08:27:38.600Z,21.63
2023-06-04T08:30:17.320Z,21.70
2023-06-04T08:33:04.374Z,22.21
2023-06-04T08:35:41.912Z,21.86
2023-06-04T08:38:09.093Z,22.44
2023-06-04T08:40:36.304Z,22.21
2023-06-04T08:43:05.466Z,22.62
2023-06-04T08:45:34.626Z,22.63
2023-06-04T08:48:02.261Z,23.19
2023-06-04T08:50:29.481Z,23.07
2023-06-04T08:52:57.434Z,23.13
2023-06-04T08:55:24.911Z,23.30
2023-06-04T08:57:52.808Z,22.89
2023-06-04T09:00:21.002Z,22.83
2023-06-04T09:02:49.043Z,22.84
2023-06-04T09:05:21.980Z,23.09
2023-06-04T09:07:53.237Z,22.86
2023-06-04T09:10:23.852Z,23.15
2023-06-04T09:12:53.240Z,23.02
2023-06-04T09:15:20.611Z,22.46
2023-06-04T09:17:47.740Z,22.55
2023-06-04T09:20:22.474Z,22.77
2023-06-04T09:22:50.205Z,22.67
2023-06-04T09:25:21.351Z,22.44
2023-06-04T09:27:48.994Z,22.61
2023-06-04T09:30:16.032Z,22.66
2023-06-04T09:32:43.657Z,22.63
2023-06-04T09:35:13.870Z,23.02
2023-06-04T09:37:53.389Z,23.62
2023-06-04T09:40:20.908Z,23.86
2023-06-04T09:42:56.060Z,23.46
2023-06-04T09:45:30.425Z,23.84
2023-06-04T09:47:57.760Z,24.11
2023-06-04T09:50:28.966Z,23.65
2023-06-04T09:52:56.247Z,23.51
2023-06-04T09:55:23.811Z,23.75
2023-06-04T09:57:52.662Z,23.96
2023-06-04T10:00:25.089Z,24.01
2023-06-04T10:03:04.424Z,23.65
2023-06-04T10:05:35.248Z,24.00
2023-06-04T10:08:08.723Z,23.82
2023-06-04T10:10:38.627Z,23.57
2023-06-04T10:13:16.491Z,23.51
2023-06-04T10:15:44.257Z,23.55
2023-06-04T10:18:12.293Z,23.10
2023-06-04T10:20:41.052Z,23.31
2023-06-04T10:23:09.641Z,23.43
2023-06-04T10:25:36.799Z,23.62
2023-06-04T10:28:05.146Z,23.71
2023-06-04T10:30:32.493Z,23.81
2023-06-04T10:33:00.586Z,23.81
2023-06-04T10:35:37.521Z,23.90
2023-06-04T10:38:13.060Z,23.67
2023-06-04T10:40:40.645Z,24.09
2023-06-04T10:43:09.628Z,24.00
2023-06-04T10:45:37.296Z,24.21
2023-06-04T10:48:09.647Z,24.52
2023-06-04T10:50:49.801Z,24.47
2023-06-04T10:53:19.325Z,24.87
2023-06-04T10:55:48.365Z,22.91
2023-06-04T10:58:16.615Z,23.44
2023-06-04T11:00:50.490Z,24.15
2023-06-04T11:03:18.078Z,24.40
2023-06-04T11:05:47.620Z,24.84
2023-06-04T11:08:16.172Z,25.16
2023-06-04T11:10:46.172Z,24.57
2023-06-04T11:13:14.087Z,24.08
2023-06-04T11:15:45.208Z,24.23
2023-06-04T11:18:20.822Z,23.55
2023-06-04T11:20:49.911Z,24.12
2023-06-04T11:23:17.810Z,24.08
2023-06-04T11:25:45.267Z,24.08
2023-06-04T11:28:19.527Z,24.11
2023-06-04T11:33:45.011Z,23.84
2023-06-04T11:36:23.121Z,23.54
2023-06-04T11:39:04.964Z,23.49
2023-06-04T11:41:33.218Z,23.48
2023-06-04T11:44:04.836Z,23.56
2023-06-04T11:46:33.874Z,23.26
2023-06-04T11:49:02.979Z,23.39
2023-06-04T11:51:30.686Z,23.33
2023-06-04T11:53:58.873Z,23.10
2023-06-04T11:56:29.417Z,22.73
2023-06-04T11:58:56.859Z,22.83
2023-06-04T12:01:24.362Z,22.53
2023-06-04T12:03:51.492Z,22.57
2023-06-04T12:06:21.712Z,22.43
2023-06-04T12:08:54.200Z,22.41
2023-06-04T12:11:32.668Z,22.55
2023-06-04T12:14:08.079Z,22.37
2023-06-04T12:16:35.709Z,22.08
2023-06-04T12:19:10.972Z,22.07
2023-06-04T12:21:39.732Z,21.58
2023-06-04T12:24:11.535Z,21.74
2023-06-04T12:26:41.753Z,21.73
2023-06-04T12:29:11.530Z,22.17
2023-06-04T12:31:43.953Z,22.20
2023-06-04T12:34:12.730Z,22.09
2023-06-04T12:36:39.986Z,22.19
2023-06-04T12:39:08.498Z,22.15
2023-06-04T12:41:35.693Z,21.95
2023-06-04T12:44:03.298Z,22.05
2023-06-04T12:46:30.902Z,21.96
2023-06-04T12:48:58.151Z,21.91
2023-06-04T12:51:25.217Z,22.12
2023-06-04T12:53:52.423Z,22.09
2023-06-04T12:56:19.722Z,22.20
2023-06-04T12:58:46.696Z,22.26
2023-06-04T13:01:14.127Z,22.33
2023-06-04T13:03:42.016Z,22.61
2023-06-04T13:06:09.366Z,22.37
2023-06-04T13:08:37.595Z,22.31
2023-06-04T13:11:05.666Z,22.51
2023-06-04T13:13:33.094Z,22.05
2023-06-04T13:16:00.336Z,22.37
2023-06-04T13:18:27.413Z,22.42
2023-06-04T13:20:54.654Z,22.55
2023-06-04T13:23:27.133Z,22.74
2023-06-04T13:25:58.828Z,22.52
2023-06-04T13:28:25.847Z,22.45
2023-06-04T13:30:52.858Z,22.44
2023-06-04T13:33:21.324Z,22.51
2023-06-04T13:35:48.632Z,22.65
2023-06-04T13:38:15.637Z,22.78
2023-06-04T13:40:44.196Z,22.65
2023-06-04T13:43:11.190Z,22.87
2023-06-04T13:45:38.371Z,22.42
2023-06-04T13:48:08.292Z,22.95
2023-06-04T13:50:36.377Z,23.28
2023-06-04T13:53:03.398Z,23.60
2023-06-04T13:55:31.020Z,23.52
2023-06-04T13:57:58.007Z,23.84
2023-06-04T14:00:25.111Z,24.13
2023-06-04T14:02:53.722Z,24.14
2023-06-04T14:05:21.038Z,24.12
2023-06-04T14:07:48.006Z,23.95
2023-06-04T14:10:15.221Z,24.21
2023-06-04T14:12:42.273Z,24.34
2023-06-04T14:15:09.717Z,24.28
2023-06-04T14:17:36.830Z,24.18
2023-06-04T14:20:08.520Z,23.92
2023-06-04T14:22:37.186Z,23.56
2023-06-04T14:25:08.441Z,23.44
2023-06-04T14:27:36.689Z,23.29
2023-06-04T14:30:04.975Z,23.24
2023-06-04T14:32:37.594Z,22.83
2023-06-04T14:35:05.238Z,22.68
2023-06-04T14:37:33.096Z,22.28
2023-06-04T14:40:00.160Z,22.37
2023-06-04T14:42:27.232Z,22.39
2023-06-04T14:44:54.239Z,22.37
2023-06-04T14:47:21.395Z,22.37
2023-06-04T14:49:48.421Z,22.31
2023-06-04T14:52:15.440Z,22.24
2023-06-04T14:54:42.510Z,22.19
2023-06-04T14:57:09.542Z,22.14
2023-06-04T14:59:37.284Z,21.94
2023-06-04T15:02:04.468Z,21.74
2023-06-04T15:04:31.497Z,21.84
2023-06-04T15:06:58.514Z,21.81
2023-06-04T15:09:25.682Z,21.96
2023-06-04T15:11:52.734Z,21.85
2023-06-04T15:14:19.696Z,21.91
2023-06-04T15:16:46.871Z,21.73
2023-06-04T15:19:13.871Z,21.59
2023-06-04T15:21:40.910Z,21.61
2023-06-04T15:24:10.136Z,21.63
2023-06-04T15:26:37.140Z,21.80
2023-06-04T15:29:04.000Z,21.72
2023-06-04T15:31:31.125Z,21.59
2023-06-04T15:33:58.114Z,21.66
2023-06-04T15:36:25.179Z,21.75
2023-06-04T15:38:52.106Z,21.72
2023-06-04T15:41:19.213Z,21.53
2023-06-04T15:43:46.181Z,21.54
2023-06-04T15:46:13.166Z,21.47
2023-06-04T15:48:40.214Z,21.34
2023-06-04T15:51:07.453Z,21.23
2023-06-04T15:53:34.509Z,21.33
2023-06-04T15:56:02.412Z,21.34
2023-06-04T15:58:29.280Z,21.29
2023-06-04T16:00:56.325Z,21.15
2023-06-04T16:03:23.589Z,21.22
2023-06-04T16:05:50.822Z,21.29
2023-06-04T16:08:17.833Z,21.12
2023-06-04T16:10:46.611Z,21.30
2023-06-04T16:13:13.896Z,21.04
2023-06-04T16:15:40.875Z,21.13
2023-06-04T16:18:07.983Z,21.12
2023-06-04T16:20:35.485Z,21.08
2023-06-04T16:23:02.690Z,20.76
2023-06-04T16:25:30.662Z,20.75
2023-06-04T16:27:58.025Z,20.73
2023-06-04T16:30:25.154Z,20.72
2023-06-04T16:32:52.273Z,20.57
2023-06-04T16:35:19.361Z,20.37
2023-06-04T16:37:46.480Z,20.11
2023-06-04T16:40:13.493Z,20.02
2023-06-04T16:42:40.557Z,20.23
2023-06-04T16:45:08.250Z,20.32
2023-06-04T16:47:36.048Z,20.32
2023-06-04T16:50:03.349Z,20.29
2023-06-04T16:52:31.921Z,20.31
2023-06-04T16:55:00.297Z,20.31
2023-06-04T16:57:30.914Z,20.28
2023-06-04T16:59:57.950Z,20.31
2023-06-04T17:02:26.038Z,20.32
2023-06-04T17:04:53.384Z,20.12
2023-06-04T17:07:20.869Z,20.31
2023-06-04T17:09:48.904Z,20.42
2023-06-04T17:12:16.646Z,20.21
2023-06-04T17:14:43.769Z,20.22
2023-06-04T17:17:13.863Z,20.27
2023-06-04T17:19:45.373Z,20.23
2023-06-04T17:22:12.752Z,20.28
2023-06-04T17:24:40.135Z,20.28
2023-06-04T17:27:09.308Z,20.21
2023-06-04T17:29:37.413Z,19.81
2023-06-04T17:32:05.091Z,19.97
2023-06-04T17:34:32.461Z,19.77
2023-06-04T17:37:01.213Z,19.78
2023-06-04T17:39:28.583Z,19.66
2023-06-04T17:41:55.620Z,19.67
2023-06-04T17:44:23.217Z,19.55
2023-06-04T17:46:50.384Z,19.52
2023-06-04T17:49:17.611Z,19.25
2023-06-04T17:51:44.697Z,19.01
2023-06-04T17:54:13.039Z,19.03
2023-06-04T17:56:40.054Z,19.03
2023-06-04T17:59:07.657Z,18.80
2023-06-04T18:01:34.865Z,18.63
2023-06-04T18:04:05.601Z,18.82
2023-06-04T18:06:32.832Z,18.67
2023-06-04T18:08:59.804Z,18.63
2023-06-04T18:11:27.875Z,18.83
2023-06-04T18:13:54.909Z,18.91
2023-06-04T18:16:22.742Z,18.79
2023-06-04T18:18:50.107Z,18.72
2023-06-04T18:21:17.168Z,18.69
2023-06-04T18:23:50.753Z,18.62
2023-06-04T18:26:18.509Z,18.67
2023-06-04T18:28:46.023Z,18.48
2023-06-04T18:31:13.122Z,18.36
2023-06-04T18:33:50.841Z,18.27
2023-06-04T18:36:23.620Z,18.12
2023-06-04T18:38:50.850Z,17.93
2023-06-04T18:41:17.938Z,17.99
2023-06-04T18:43:45.084Z,17.93
2023-06-04T18:46:12.740Z,17.87
2023-06-04T18:48:39.651Z,17.83
2023-06-04T18:51:06.681Z,17.60
2023-06-04T18:56:18.527Z,17.51
2023-06-04T18:58:50.441Z,17.43
2023-06-04T19:01:18.248Z,17.37
2023-06-04T19:03:45.567Z,17.24
2023-06-04T19:06:12.773Z,17.31
2023-06-04T19:08:39.868Z,17.31
2023-06-04T19:11:08.293Z,17.21
2023-06-04T19:13:35.489Z,17.11
2023-06-04T19:16:02.874Z,17.09
2023-06-04T19:18:31.297Z,17.00
2023-06-04T19:20:58.697Z,16.95
2023-06-04T19:23:26.216Z,17.04
2023-06-04T19:25:53.380Z,16.91
2023-06-04T19:28:20.416Z,16.91
2023-06-04T19:30:48.459Z,16.85
2023-06-04T19:33:15.612Z,16.87
2023-06-04T19:35:42.810Z,16.85
2023-06-04T19:38:09.996Z,16.94
2023-06-04T19:40:37.140Z,16.87
2023-06-04T19:43:04.086Z,16.87
2023-06-04T19:45:31.114Z,16.71
2023-06-04T19:47:59.199Z,17.01
2023-06-04T19:50:26.274Z,16.93
2023-06-04T19:52:53.833Z,16.91
2023-06-04T19:55:20.816Z,16.87
2023-06-04T19:57:49.033Z,16.85
2023-06-04T20:00:16.957Z,16.75
2023-06-04T20:02:44.010Z,16.73
2023-06-04T20:05:11.322Z,16.62
2023-06-04T20:07:38.383Z,16.72
2023-06-04T20:10:06.437Z,16.67
2023-06-04T20:12:34.013Z,16.65
2023-06-04T20:15:01.020Z,16.61
2023-06-04T20:17:32.601Z,16.83
2023-06-04T20:19:59.695Z,16.81
2023-06-04T20:22:26.846Z,16.77
2023-06-04T20:24:53.786Z,16.63
2023-06-04T20:27:20.789Z,16.60
2023-06-04T20:29:47.803Z,16.59
2023-06-04T20:32:14.812Z,16.55
2023-06-04T20:34:41.815Z,16.54
2023-06-04T20:37:09.332Z,16.68
2023-06-04T20:39:40.366Z,16.68
2023-06-04T20:42:07.704Z,16.59
2023-06-04T20:44:34.822Z,16.68
2023-06-04T20:47:02.068Z,16.72
2023-06-04T20:49:29.018Z,16.69
2023-06-04T20:51:56.117Z,16.80
2023-06-04T20:54:23.330Z,16.74
2023-06-04T20:56:50.483Z,16.63
2023-06-04T20:59:17.566Z,16.58
2023-06-04T21:01:44.522Z,16.48
2023-06-04T21:04:11.980Z,16.43
2023-06-04T21:06:40.316Z,16.29
2023-06-04T21:09:07.936Z,16.52
2023-06-04T21:11:34.977Z,16.43
2023-06-04T21:14:02.233Z,16.39
2023-06-04T21:16:29.316Z,16.34
2023-06-04T21:18:56.351Z,16.26
2023-06-04T21:21:23.345Z,16.22
2023-06-04T21:23:50.547Z,16.25
2023-06-04T21:26:18.337Z,16.32
2023-06-04T21:28:45.363Z,16.14
2023-06-04T21:31:12.350Z,16.26
2023-06-04T21:33:39.625Z,16.26
2023-06-04T21:36:06.695Z,16.33
2023-06-04T21:38:33.750Z,16.23
2023-06-04T21:41:00.819Z,16.18
2023-06-04T21:43:27.802Z,16.27
2023-06-04T21:45:55.529Z,16.26
2023-06-04T21:48:22.667Z,16.33
2023-06-04T21:50:49.598Z,16.18
2023-06-04T21:53:16.928Z,16.00
2023-06-04T21:55:43.920Z,16.00
2023-06-04T21:58:10.960Z,15.79
2023-06-04T22:00:37.985Z,15.82
2023-06-04T22:03:05.184Z,15.87
2023-06-04T22:05:32.248Z,15.82
2023-06-04T22:08:01.930Z,15.38
2023-06-04T22:10:30.060Z,15.90
2023-06-04T22:12:57.125Z,15.88
2023-06-04T22:15:24.155Z,15.94
2023-06-04T22:17:51.186Z,16.01
2023-06-04T22:20:18.473Z,15.98
2023-06-04T22:22:45.578Z,15.85
2023-06-04T22:25:12.528Z,15.67
2023-06-04T22:27:39.550Z,15.72
2023-06-04T22:30:07.132Z,15.77
2023-06-04T22:32:35.827Z,15.61
2023-06-04T22:35:02.905Z,15.66
2023-06-04T22:37:31.815Z,15.76
2023-06-04T22:40:01.783Z,15.64
2023-06-04T22:42:31.458Z,15.40
2023-06-04T22:44:58.686Z,15.29
2023-06-04T22:47:26.028Z,15.50
2023-06-04T22:49:53.129Z,15.53
2023-06-04T22:52:21.032Z,15.43
2023-06-04T22:54:48.184Z,15.55
2023-06-04T22:57:15.584Z,15.40
2023-06-04T22:59:42.639Z,15.32
2023-06-04T23:02:09.738Z,15.31
2023-06-04T23:04:37.813Z,15.21
2023-06-04T23:07:06.657Z,15.23
2023-06-04T23:09:33.873Z,15.11
2023-06-04T23:12:00.866Z,15.12
2023-06-04T23:14:27.913Z,15.15
2023-06-04T23:16:55.029Z,14.99
2023-06-04T23:19:22.106Z,14.96
2023-06-04T23:21:49.181Z,15.09
2023-06-04T23:24:16.132Z,15.12
2023-06-04T23:26:43.147Z,15.07
2023-06-04T23:29:10.392Z,15.09
2023-06-04T23:31:37.445Z,15.14
2023-06-04T23:34:04.412Z,15.28
2023-06-04T23:36:31.431Z,15.21
2023-06-04T23:38:58.761Z,15.05
2023-06-04T23:41:25.844Z,15.18
2023-06-04T23:43:52.941Z,15.12
2023-06-04T23:46:19.973Z,15.10
2023-06-04T23:48:47.024Z,14.98
2023-06-04T23:51:14.107Z,14.84
2023-06-04T23:53:41.420Z,14.80
2023-06-04T23:56:08.394Z,14.90
2023-06-04T23:58:35.541Z,15.06
